Latest Weather Observations for Cunderdin Airport

IDW60801

Issued at 7:35 pm WST Saturday 1 November 2014 (issued every 30 minutes, with the page automatically refreshed every 10 minutes)

About weather observations | Map of weather stations | Latest weather observations for WA | Other Formats
Station Details ID: 010286 Name: CUNDERDIN AIRFIELD Lat: -31.62 Lon: 117.22 Height: 216.7 m
Data from the previous 72 hours. | See also: Recent months at Cunderdin Airport
Date/Time
WST
Temp
°C
App
Temp
°C
Dew
Point
Rel
Hum
%
Delta-T
°C
Wind Press
QNH
hPa
Press
MSL
hPa
Rain
since 9 am
mm
Dir
 
Spd
km/h
Gust
km/h
Spd
kts
Gust
kts
01/07:30pm 22.2 18.6 0.7 24 9.9 ESE 9 15 5 8 1015.4 1014.6 0.0
01/07:00pm 23.5 19.8 -0.1 21 10.8 E 9 9 5 5 1015.1 1014.3 0.0
01/06:30pm 24.9 21.1 -1.0 18 11.8 E 9 11 5 6 1014.8 1014.0 0.0
01/06:00pm 27.2 23.2 -2.6 14 13.4 NE 9 15 5 8 1014.6 1013.8 0.0
01/05:30pm 28.4 22.1 -3.7 12 14.3 ENE 20 24 11 13 1014.3 1013.6 0.0
01/05:00pm 29.1 24.2 -3.2 12 14.6 NNE 13 26 7 14 1014.5 1013.7 0.0
01/04:30pm 29.4 24.3 -1.9 13 14.5 NNE 15 17 8 9 1014.6 1013.8 0.0
01/04:00pm 29.3 24.6 -1.9 13 14.5 NNE 13 19 7 10 1014.7 1013.9 0.0
01/03:30pm 29.8 25.8 0.4 15 14.3 NNE 11 17 6 9 1014.9 1014.1 0.0
01/03:00pm 30.0 25.3 0.6 15 14.3 ENE 15 26 8 14 1015.2 1014.4 0.0
01/02:30pm 30.0 23.2 0.6 15 14.3 NE 26 41 14 22 1015.4 1014.6 0.0
01/02:00pm 28.6 24.1 2.0 18 13.1 NNE 15 28 8 15 1015.9 1015.1 0.0
01/01:30pm 28.3 24.2 2.5 19 12.8 NE 13 22 7 12 1016.3 1015.5 0.0
01/01:00pm 28.3 23.6 3.2 20 12.6 NNE 17 30 9 16 1017.0 1016.2 0.0
01/12:30pm 28.0 23.1 4.3 22 12.2 NNE 19 33 10 18 1017.4 1016.6 0.0
01/12:00pm 26.3 21.3 3.5 23 11.4 NNE 19 32 10 17 1017.5 1016.7 0.0
01/11:30am 26.0 22.3 4.5 25 10.9 NE 13 24 7 13 1018.1 1017.4 0.0
01/11:00am 26.0 21.4 5.6 27 10.6 ENE 19 32 10 17 1018.8 1018.1 0.0
01/10:30am 24.5 19.6 5.3 29 9.8 ENE 20 32 11 17 1019.4 1018.6 0.0
01/10:00am 23.8 19.0 5.7 31 9.2 ENE 20 30 11 16 1019.7 1018.9 0.0
01/09:30am 22.8 17.3 6.1 34 8.6 ENE 24 35 13 19 1019.8 1019.0 0.0
01/09:00am 20.9 14.6 5.7 37 7.6 ENE 28 39 15 21 1020.0 1019.2 0.0
01/08:30am 19.8 13.5 5.5 39 7.1 ENE 28 35 15 19 1020.2 1019.4 0.0
01/08:00am 18.3 12.4 5.8 44 6.2 E 26 37 14 20 1020.4 1019.6 0.0
01/07:30am 16.8 10.6 6.0 49 5.3 ENE 28 39 15 21 1020.3 1019.9 0.0
01/07:00am 15.6 10.6 6.6 55 4.4 E 22 30 12 16 1020.6 1020.2 0.0
01/06:30am 14.1 10.4 6.5 60 3.7 E 15 22 8 12 1020.4 1020.0 0.0
01/06:00am 12.5 8.4 6.1 65 3.0 ESE 17 22 9 12 1020.2 1019.8 0.0
01/05:30am 11.4 8.0 5.9 69 2.6 ESE 13 19 7 10 1019.7 1019.3 0.0
01/05:00am 11.4 7.9 5.5 67 2.7 ESE 13 20 7 11 1019.4 1019.0 0.0
01/04:30am 11.8 7.9 5.4 65 3.0 ESE 15 20 8 11 1019.1 1018.8 0.0
01/04:00am 12.2 8.2 5.1 62 3.3 ESE 15 22 8 12 1018.9 1018.6 0.0
01/03:30am 12.8 8.9 5.2 60 3.6 ESE 15 20 8 11 1018.9 1018.6 0.0
01/03:00am 13.0 8.7 5.2 59 3.7 ESE 17 22 9 12 1018.7 1018.3 0.0
01/02:30am 13.3 9.7 5.0 57 3.9 ESE 13 19 7 10 1018.6 1018.2 0.0
01/02:00am 13.8 10.2 4.9 55 4.2 ESE 13 20 7 11 1018.4 1018.0 0.0
01/01:30am 14.5 10.9 4.8 52 4.6 E 13 20 7 11 1018.3 1017.9 0.0
01/01:00am 15.3 10.9 4.7 49 5.0 E 17 28 9 15 1018.0 1017.6 0.0
01/12:30am 16.0 11.6 5.0 48 5.3 E 17 22 9 12 1018.1 1017.7 0.0
01/12:00am 16.5 11.8 5.2 47 5.4 ESE 19 28 10 15 1018.0 1017.6 0.0
 
Date/Time
WST
Temp
°C
App
Temp
°C
Dew
Point
Rel
Hum
%
Delta-T
°C
Wind Press
QNH
hPa
Press
MSL
hPa
Rain
since 9 am
mm
Dir
 
Spd
km/h
Gust
km/h
Spd
kts
Gust
kts
31/11:30pm 16.1 12.5 5.1 48 5.3 ESE 13 20 7 11 1018.3 1017.9 0.0
31/11:00pm 12.9 9.8 3.6 53 4.2 E 9 11 5 6 1018.2 1017.8 0.0
31/10:30pm 13.0 9.9 3.7 53 4.2 E 9 9 5 5 1018.1 1017.7 0.0
31/10:00pm 14.3 11.0 2.5 45 5.3 ESE 9 11 5 6 1018.0 1017.6 0.0
31/09:30pm 14.1 10.8 2.7 46 5.1 E 9 11 5 6 1018.1 1017.7 0.0
31/09:00pm 14.0 11.1 2.6 46 5.1 E 7 9 4 5 1018.1 1017.7 0.0
31/08:30pm 18.1 14.6 1.2 32 7.6 ESE 9 15 5 8 1018.0 1017.6 0.0
31/08:00pm 18.5 14.6 1.1 31 7.8 SE 11 13 6 7 1017.7 1017.3 0.0
31/07:30pm 19.9 16.0 1.4 29 8.5 SE 11 15 6 8 1017.5 1017.1 0.0
31/07:00pm 20.1 16.3 1.5 29 8.6 SSE 11 13 6 7 1017.1 1016.7 0.0
31/06:30pm 21.8 17.9 0.9 25 9.6 SSE 11 17 6 9 1016.8 1016.4 0.0
31/06:00pm 23.1 18.7 0.2 22 10.5 SSE 13 20 7 11 1016.5 1016.1 0.0
31/05:30pm 24.2 19.2 -0.9 19 11.4 SSE 15 20 8 11 1016.2 1015.8 0.0
31/05:00pm 24.5 19.6 -0.6 19 11.5 S 15 20 8 11 1015.9 1015.5 0.0
31/04:30pm 25.4 20.9 -0.6 18 12.0 SSE 13 30 7 16 1015.7 1015.3 0.0
31/04:00pm 24.5 20.0 -0.6 19 11.5 SSE 13 22 7 12 1015.7 1015.3 0.0
31/03:30pm 24.5 20.2 -1.3 18 11.7 SE 11 24 6 13 1015.7 1015.3 0.0
31/03:00pm 24.4 20.1 -1.4 18 11.6 SSE 11 22 6 12 1015.8 1015.4 0.0
31/02:30pm 25.0 19.9 -1.7 17 12.0 SSE 15 24 8 13 1016.0 1015.6 0.0
31/02:00pm 24.9 21.1 -1.0 18 11.8 SE 9 22 5 12 1016.0 1015.6 0.0
31/01:30pm 24.4 20.6 -0.7 19 11.5 SE 9 15 5 8 1016.2 1015.8 0.0
31/01:00pm 23.7 19.6 2.5 25 10.2 SE 13 24 7 13 1016.2 1015.8 0.0
31/12:30pm 23.5 19.7 4.0 28 9.7 SW 13 26 7 14 1016.5 1016.1 0.0
31/12:00pm 22.4 18.9 5.4 33 8.6 S 13 24 7 13 1016.7 1016.3 0.0
31/11:30am 21.8 19.4 6.9 38 7.7 W 9 20 5 11 1016.9 1016.5 0.0
31/11:00am 21.8 18.9 8.3 42 7.2 SSW 13 26 7 14 1017.1 1016.7 0.0
31/10:30am 19.8 16.3 8.8 49 5.8 S 17 24 9 13 1017.3 1016.9 0.0
31/10:00am 19.7 16.9 10.1 54 5.2 S 15 26 8 14 1017.4 1017.0 0.0
31/09:30am 18.3 14.7 10.4 60 4.3 SSE 20 30 11 16 1017.4 1017.0 0.0
31/09:00am 17.5 13.6 10.9 65 3.6 SSE 22 32 12 17 1017.1 1016.7 0.0
31/08:30am 18.1 14.3 11.2 64 3.8 S 22 32 12 17 1016.8 1016.4 0.0
31/08:00am 16.9 13.5 11.4 70 3.0 S 20 30 11 16 1016.8 1016.4 0.0
31/07:30am 15.5 13.3 12.1 80 1.9 S 15 20 8 11 1016.5 1016.1 0.0
31/07:00am 15.3 13.8 11.9 80 1.9 WSW 11 15 6 8 1016.3 1015.9 0.0
31/06:30am 14.7 13.1 11.7 82 1.6 W 11 13 6 7 1016.0 1015.6 0.0
31/06:00am 14.1 12.6 11.8 86 1.2 WNW 11 13 6 7 1015.6 1015.2 0.0
31/05:30am 13.0 12.1 11.4 90 0.9 NW 7 9 4 5 1015.2 1014.8 0.0
31/05:00am 12.6 11.2 11.0 90 0.8 W 9 13 5 7 1015.0 1014.6 0.0
31/04:30am 12.0 10.4 10.2 89 0.9 NW 9 11 5 6 1014.5 1014.0 0.0
31/04:00am 12.8 11.0 10.9 88 1.0 W 11 13 6 7 1014.1 1013.7 0.0
31/03:30am 12.5 11.0 10.6 88 1.0 W 9 13 5 7 1014.0 1013.6 0.0
31/03:00am 11.9 9.9 10.0 88 1.0 WNW 11 13 6 7 1014.0 1013.6 0.0
31/02:30am 12.3 11.0 10.0 86 1.2 WNW 7 9 4 5 1013.9 1013.5 0.0
31/02:00am 12.8 11.5 9.8 82 1.6 W 7 9 4 5 1014.0 1013.6 0.0
31/01:30am 13.7 11.3 10.1 79 1.9 WSW 13 15 7 8 1014.1 1013.7 0.0
31/01:00am 14.5 11.5 10.5 77 2.1 SW 17 22 9 12 1014.3 1013.9 0.0
31/12:30am 14.6 11.4 10.0 74 2.4 WSW 17 20 9 11 1014.6 1014.1 0.0
31/12:00am 15.4 12.5 9.5 68 3.1 WSW 15 20 8 11 1014.8 1014.3 0.0
 
Date/Time
WST
Temp
°C
App
Temp
°C
Dew
Point
Rel
Hum
%
Delta-T
°C
Wind Press
QNH
hPa
Press
MSL
hPa
Rain
since 9 am
mm
Dir
 
Spd
km/h
Gust
km/h
Spd
kts
Gust
kts
30/11:30pm 14.7 12.0 9.1 69 2.9 WSW 13 17 7 9 1015.0 1014.6 0.0
30/11:00pm 15.6 11.7 9.3 66 3.3 WSW 20 28 11 15 1015.1 1014.7 0.0
30/10:30pm 15.9 11.2 9.1 64 3.5 WSW 24 32 13 17 1015.1 1014.7 0.0
30/10:00pm 15.3 10.1 8.8 65 3.3 SW 26 37 14 20 1015.2 1014.8 0.0
30/09:30pm 15.9 12.3 9.8 67 3.2 WSW 19 28 10 15 1015.4 1015.0 0.0
30/09:00pm 15.4 12.1 9.5 68 3.1 WSW 17 26 9 14 1015.1 1014.7 0.0
30/08:30pm 15.4 11.4 9.1 66 3.3 WSW 20 26 11 14 1014.9 1014.4 0.0
30/08:00pm 15.7 10.2 9.1 65 3.4 WSW 28 39 15 21 1014.6 1014.1 0.0
30/07:30pm 16.1 10.6 9.1 63 3.6 WSW 28 35 15 19 1014.1 1013.7 0.0
30/07:00pm 16.9 10.8 9.8 63 3.8 WSW 32 43 17 23 1013.5 1013.1 0.0
30/06:30pm 18.4 12.3 9.7 57 4.6 W 32 43 17 23 1012.9 1012.5 0.0
30/06:00pm 20.2 14.0 9.2 49 5.9 WSW 32 39 17 21 1012.2 1011.8 0.0
30/05:30pm 22.6 16.1 9.0 42 7.3 WSW 33 44 18 24 1011.7 1011.3 0.0
30/05:00pm 24.2 18.3 9.0 38 8.3 W 30 37 16 20 1011.5 1011.1 0.0
30/04:30pm 25.3 18.9 8.7 35 9.1 W 32 43 17 23 1011.1 1010.7 0.0
30/04:00pm 26.0 19.3 9.8 36 9.0 W 35 44 19 24 1010.9 1010.4 0.0
30/03:30pm 26.5 20.8 11.0 38 8.8 WSW 32 44 17 24 1010.7 1010.2 0.0
30/03:00pm 27.1 22.1 12.3 39 8.7 W 30 43 16 23 1010.6 1010.1 0.0
30/02:30pm 28.2 24.2 11.7 36 9.6 W 24 33 13 18 1010.5 1010.0 0.0
30/02:18pm 27.9 23.2 11.9 37 9.3 W 28 46 15 25 1010.6 1010.1 0.0
30/02:00pm 27.9 23.3 11.0 35 9.7 W 26 37 14 20 1010.8 1010.3 0.0
30/01:30pm 27.2 23.2 11.7 38 9.0 WSW 24 32 13 17 1011.0 1010.6 0.0
30/01:00pm 27.4 24.5 14.1 44 8.0 W 22 33 12 18 1011.3 1010.9 0.0
30/12:30pm 26.6 24.1 14.0 46 7.6 WNW 20 28 11 15 1011.5 1011.1 0.0
30/12:00pm 26.3 24.1 14.4 48 7.2 W 19 32 10 17 1011.8 1011.4 0.0
30/11:30am 25.8 23.4 14.3 49 6.9 W 20 30 11 16 1012.0 1011.6 0.0
30/11:00am 25.4 22.8 14.8 52 6.4 WNW 22 32 12 17 1012.4 1012.0 0.0
30/10:30am 25.6 24.2 14.4 50 6.7 W 15 28 8 15 1012.8 1012.4 0.0
30/10:00am 23.9 22.7 14.0 54 5.9 W 13 19 7 10 1013.2 1012.8 0.0
30/09:30am 23.1 23.1 14.1 57 5.3 SW 7 17 4 9 1013.4 1013.0 0.0
30/09:00am 22.2 21.3 14.8 63 4.4 WSW 13 20 7 11 1013.7 1013.3 0.0
30/08:30am 20.7 19.6 14.4 67 3.7 WSW 13 20 7 11 1013.9 1013.5 0.0
30/08:00am 19.6 18.9 14.2 71 3.2 W 11 17 6 9 1014.0 1013.6 0.0
30/07:30am 18.6 17.9 14.3 76 2.5 SW 11 17 6 9 1014.2 1013.8 0.0
30/07:00am 17.3 17.2 14.0 81 1.9 WSW 7 11 4 6 1013.8 1013.4 0.0
30/06:30am 15.5 16.8 14.0 91 0.9 CALM 0 0 0 0 1013.4 1013.0 0.0
30/06:00am 13.6 14.4 12.5 93 0.6 CALM 0 0 0 0 1013.3 1012.9 0.0
30/05:30am 13.6 14.4 12.5 93 0.6 CALM 0 0 0 0 1013.3 1012.9 0.0
30/05:00am 13.4 12.7 12.1 92 0.7 SW 7 9 4 5 1013.1 1012.7 0.0
30/04:30am 13.1 13.6 11.7 91 0.8 CALM 0 0 0 0 1012.7 1012.3 0.0
30/04:00am 13.3 13.8 11.5 89 1.0 CALM 0 0 0 0 1012.6 1012.2 0.0
30/03:30am 14.2 14.1 12.2 88 1.1 ENE 4 7 2 4 1012.5 1012.1 0.0
30/03:00am 15.0 15.2 12.9 87 1.2 SSE 4 7 2 4 1013.1 1012.7 0.0
30/02:30am 15.6 15.2 12.9 84 1.5 E 7 11 4 6 1012.8 1012.4 0.0
30/02:00am 16.6 15.2 13.3 81 1.9 SSE 13 15 7 8 1012.6 1012.2 0.0
30/01:30am 17.2 16.3 13.7 80 2.0 SSE 11 17 6 9 1012.8 1012.4 0.0
30/01:00am 17.8 17.0 13.9 78 2.2 SSE 11 17 6 9 1012.8 1012.4 0.0
30/12:30am 18.0 16.8 14.1 78 2.3 S 13 15 7 8 1012.9 1012.5 0.0
30/12:00am 17.2 16.7 13.7 80 2.0 S 9 11 5 6 1012.8 1012.4 0.0
 
Date/Time
WST
Temp
°C
App
Temp
°C
Dew
Point
Rel
Hum
%
Delta-T
°C
Wind Press
QNH
hPa
Press
MSL
hPa
Rain
since 9 am
mm
Dir
 
Spd
km/h
Gust
km/h
Spd
kts
Gust
kts
29/11:30pm 17.3 16.7 13.4 78 2.2 SSW 9 11 5 6 1012.9 1012.5 0.0
29/11:00pm 17.3 18.1 12.6 74 2.6 CALM 0 6 0 3 1012.8 1012.4 0.0
29/10:30pm 19.3 19.1 13.0 67 3.6 SSE 6 7 3 4 1012.7 1012.3 0.0
29/10:00pm 20.2 19.9 12.7 62 4.3 SE 6 7 3 4 1012.7 1012.3 0.0
29/09:30pm 20.2 20.3 12.7 62 4.3 E 4 11 2 6 1012.7 1012.3 0.0
29/09:00pm 20.1 19.0 13.1 64 4.0 NW 11 15 6 8 1012.9 1012.5 0.0
29/08:30pm 23.0 22.3 12.0 50 6.3 SSE 7 11 4 6 1012.5 1012.1 0.0
29/08:00pm 23.3 22.8 12.6 51 6.2 SSE 7 9 4 5 1012.2 1011.8 0.0

Other Formats:

Comma delimited format used in spreadsheet applications
http://www.bom.gov.au/fwo/IDW60801/IDW60801.95625.axf

JavaScript Object Notation format (JSON) in row-major order
http://www.bom.gov.au/fwo/IDW60801/IDW60801.95625.json